createdAt,value
2022-09-28T05:05:25.489Z,14.09
2022-09-28T05:07:28.239Z,14.40
2022-09-28T05:09:33.102Z,14.64
2022-09-28T05:11:39.013Z,14.84
2022-09-28T05:13:43.692Z,14.97
2022-09-28T05:15:46.659Z,15.10
2022-09-28T05:17:49.559Z,15.19
2022-09-28T05:19:52.278Z,15.27
2022-09-28T05:21:57.969Z,15.37
2022-09-28T05:24:00.782Z,15.40
2022-09-28T05:26:04.253Z,15.47
2022-09-28T05:28:07.697Z,15.52
2022-09-28T05:30:11.411Z,15.58
2022-09-28T05:32:14.151Z,15.62
2022-09-28T05:34:16.893Z,15.66
2022-09-28T05:36:19.802Z,15.69
2022-09-28T05:38:24.004Z,15.72
2022-09-28T05:40:26.907Z,15.76
2022-09-28T05:42:30.806Z,15.79
2022-09-28T05:44:33.653Z,15.79
2022-09-28T05:46:36.350Z,15.79
2022-09-28T05:48:39.500Z,15.79
2022-09-28T05:50:42.315Z,15.83
2022-09-28T05:52:45.374Z,15.81
2022-09-28T05:54:49.701Z,15.81
2022-09-28T05:56:54.699Z,15.82
2022-09-28T05:58:58.580Z,15.83
2022-09-28T06:01:01.326Z,15.86
2022-09-28T06:03:08.925Z,15.88
2022-09-28T06:05:17.458Z,15.92
2022-09-28T06:07:20.819Z,15.94
2022-09-28T06:09:26.018Z,15.95
2022-09-28T06:11:30.037Z,15.95
2022-09-28T06:13:33.835Z,15.97
2022-09-28T06:15:37.850Z,15.97
2022-09-28T06:17:40.909Z,15.97
2022-09-28T06:19:44.169Z,15.96
2022-09-28T06:21:48.459Z,15.93
2022-09-28T06:23:51.598Z,15.93
2022-09-28T06:25:54.992Z,15.94
2022-09-28T06:28:00.658Z,15.93
2022-09-28T06:30:06.082Z,15.93
2022-09-28T06:32:09.289Z,15.95
2022-09-28T06:34:12.581Z,15.93
2022-09-28T06:36:15.284Z,15.94
2022-09-28T06:38:18.156Z,15.95
2022-09-28T06:40:21.803Z,15.96
2022-09-28T06:42:25.632Z,15.97
2022-09-28T06:44:29.845Z,15.96
2022-09-28T06:46:32.994Z,15.95
2022-09-28T06:48:36.463Z,15.97
2022-09-28T06:50:42.703Z,16.00
2022-09-28T06:52:45.482Z,15.99
2022-09-28T06:54:48.455Z,16.00
2022-09-28T06:56:51.243Z,16.01
2022-09-28T06:58:54.275Z,16.04
2022-09-28T07:01:02.353Z,16.08
2022-09-28T07:03:07.487Z,16.11
2022-09-28T07:05:15.685Z,16.16
2022-09-28T07:07:18.957Z,16.21
2022-09-28T07:09:32.229Z,16.26
2022-09-28T07:11:40.483Z,16.32
2022-09-28T07:13:50.531Z,16.36
2022-09-28T07:15:56.714Z,16.40
2022-09-28T07:18:03.770Z,16.42
2022-09-28T07:20:16.653Z,16.50
2022-09-28T07:22:33.481Z,16.54
2022-09-28T07:24:41.680Z,16.57
2022-09-28T07:26:45.418Z,16.61
2022-09-28T07:28:48.184Z,16.66
2022-09-28T07:30:51.248Z,16.69
2022-09-28T07:32:54.362Z,16.73
2022-09-28T07:34:59.172Z,16.77
2022-09-28T07:37:02.247Z,16.80
2022-09-28T07:39:05.258Z,16.84
2022-09-28T07:41:15.169Z,16.89
2022-09-28T07:43:20.577Z,16.90
2022-09-28T07:45:24.830Z,16.88
2022-09-28T07:47:33.829Z,16.86
2022-09-28T07:49:37.760Z,16.83
2022-09-28T07:51:43.702Z,16.82
2022-09-28T07:53:49.052Z,16.87
2022-09-28T07:55:52.761Z,16.90
2022-09-28T07:57:56.956Z,16.94
2022-09-28T08:00:02.160Z,16.97
2022-09-28T08:02:05.062Z,17.01
2022-09-28T08:04:07.925Z,17.03
2022-09-28T08:06:13.623Z,17.06
2022-09-28T08:08:20.828Z,17.09
2022-09-28T08:10:24.003Z,17.12
2022-09-28T08:12:29.757Z,17.17
2022-09-28T08:14:34.516Z,17.19
2022-09-28T08:16:40.303Z,17.23
2022-09-28T08:18:43.236Z,17.26
2022-09-28T08:21:03.689Z,17.30
2022-09-28T08:23:07.579Z,17.30
2022-09-28T08:25:12.319Z,17.33
2022-09-28T08:27:24.840Z,17.36
2022-09-28T08:29:28.439Z,17.38
2022-09-28T08:31:31.346Z,17.41
2022-09-28T08:33:34.879Z,17.43
2022-09-28T08:35:37.703Z,17.42
2022-09-28T08:37:44.915Z,17.38
2022-09-28T08:39:51.688Z,17.34
2022-09-28T08:42:07.491Z,17.29
2022-09-28T08:44:17.015Z,17.28
2022-09-28T08:51:11.908Z,17.29
2022-09-28T08:53:32.131Z,17.28
2022-09-28T08:55:38.459Z,17.30
2022-09-28T08:57:48.017Z,17.31
2022-09-28T08:59:53.241Z,17.36
2022-09-28T09:02:01.911Z,17.39
2022-09-28T09:04:07.518Z,17.44
2022-09-28T09:06:30.032Z,17.46
2022-09-28T09:08:46.865Z,17.49
2022-09-28T09:10:53.411Z,17.52
2022-09-28T09:13:11.848Z,17.53
2022-09-28T09:15:28.981Z,17.54
2022-09-28T09:17:45.646Z,17.55
2022-09-28T09:19:54.894Z,17.55
2022-09-28T09:22:01.581Z,17.55
2022-09-28T09:24:14.149Z,17.57
2022-09-28T09:26:24.974Z,17.58
2022-09-28T09:28:50.576Z,17.60
2022-09-28T09:31:04.185Z,17.64
2022-09-28T09:33:25.580Z,17.64
2022-09-28T09:36:04.750Z,17.64
2022-09-28T09:38:22.989Z,17.63
2022-09-28T09:40:45.055Z,17.62
2022-09-28T09:43:01.025Z,17.62
2022-09-28T09:45:19.849Z,17.65
2022-09-28T09:47:27.029Z,17.67
2022-09-28T09:49:35.061Z,17.69
2022-09-28T09:51:45.384Z,17.68
2022-09-28T09:53:53.591Z,17.68
2022-09-28T09:56:00.910Z,17.68
2022-09-28T09:58:12.295Z,17.68
2022-09-28T10:00:18.564Z,17.65
2022-09-28T10:02:25.131Z,17.63
2022-09-28T10:04:33.947Z,17.57
2022-09-28T10:06:38.829Z,17.54
2022-09-28T10:08:45.521Z,17.56
2022-09-28T10:10:51.073Z,17.59
2022-09-28T10:12:54.843Z,17.60
2022-09-28T10:14:57.735Z,17.58
2022-09-28T10:17:03.772Z,17.56
2022-09-28T10:19:06.728Z,17.55
2022-09-28T10:21:14.250Z,17.51
2022-09-28T10:23:23.482Z,17.54
2022-09-28T10:25:26.684Z,17.52
2022-09-28T10:27:34.943Z,17.53
2022-09-28T10:29:50.726Z,17.51
2022-09-28T10:31:55.690Z,17.56
2022-09-28T10:33:59.938Z,17.63
2022-09-28T10:36:05.925Z,17.67
2022-09-28T10:38:16.309Z,17.70
2022-09-28T10:40:34.146Z,17.73
2022-09-28T10:42:37.333Z,17.73
2022-09-28T10:44:52.909Z,17.74
2022-09-28T10:47:01.574Z,17.75
2022-09-28T10:49:14.752Z,17.76
2022-09-28T10:51:18.277Z,17.79
2022-09-28T10:53:21.674Z,17.83
2022-09-28T10:55:31.593Z,17.88
2022-09-28T10:57:36.071Z,17.92
2022-09-28T10:59:40.892Z,17.93
2022-09-28T11:01:43.867Z,17.98
2022-09-28T11:03:53.342Z,18.00
2022-09-28T11:06:00.634Z,18.01
2022-09-28T11:08:08.296Z,18.02
2022-09-28T11:10:20.022Z,18.02
2022-09-28T11:12:26.072Z,18.02
2022-09-28T11:14:38.404Z,18.02
2022-09-28T11:16:45.445Z,18.01
2022-09-28T11:18:48.523Z,18.02
2022-09-28T11:20:51.511Z,18.03
2022-09-28T11:22:57.128Z,18.01
2022-09-28T11:25:23.588Z,18.01
2022-09-28T11:27:27.802Z,18.01
2022-09-28T11:29:38.279Z,18.01
2022-09-28T11:31:41.152Z,17.97
2022-09-28T11:33:47.296Z,17.93
2022-09-28T11:35:54.993Z,17.91
2022-09-28T11:38:16.199Z,17.88
2022-09-28T11:40:36.174Z,17.83
2022-09-28T11:42:50.199Z,17.82
2022-09-28T11:44:59.042Z,17.80
2022-09-28T11:47:13.208Z,17.79
2022-09-28T11:49:30.192Z,17.81
2022-09-28T11:51:37.303Z,17.83
2022-09-28T11:53:46.573Z,17.83
2022-09-28T11:55:55.840Z,17.84
2022-09-28T11:58:04.918Z,17.86
2022-09-28T12:00:13.391Z,17.87
2022-09-28T12:02:23.219Z,17.90
2022-09-28T12:04:33.269Z,17.90
2022-09-28T12:06:43.139Z,17.91
2022-09-28T12:08:53.676Z,17.92
2022-09-28T12:11:00.484Z,17.91
2022-09-28T12:13:08.141Z,17.94
2022-09-28T12:15:18.418Z,17.93
2022-09-28T12:17:26.271Z,17.93
2022-09-28T12:19:34.391Z,17.93
2022-09-28T12:21:42.186Z,17.92
2022-09-28T12:23:47.770Z,17.91
2022-09-28T12:25:59.115Z,17.93
2022-09-28T12:28:07.458Z,17.96
2022-09-28T12:30:16.365Z,17.97
2022-09-28T12:32:28.552Z,17.98
2022-09-28T12:34:31.536Z,17.97
2022-09-28T12:36:47.441Z,17.96
2022-09-28T12:39:27.071Z,17.92
2022-09-28T12:41:48.623Z,17.95
2022-09-28T12:44:14.123Z,17.96
2022-09-28T12:46:33.400Z,17.98
2022-09-28T12:49:43.568Z,17.98
2022-09-28T12:51:38.640Z,17.93
2022-09-28T12:54:00.699Z,17.92
2022-09-28T12:56:07.004Z,17.93
2022-09-28T12:58:25.847Z,17.90
2022-09-28T13:00:39.501Z,17.90
2022-09-28T13:03:13.507Z,17.91
2022-09-28T13:05:52.353Z,17.88
2022-09-28T13:08:02.772Z,17.89
2022-09-28T13:10:17.841Z,17.91
2022-09-28T13:12:40.441Z,17.88
2022-09-28T13:15:24.836Z,17.91
2022-09-28T13:17:41.624Z,17.91
2022-09-28T13:19:52.203Z,17.95
2022-09-28T13:22:03.584Z,17.97
2022-09-28T13:24:31.050Z,17.99
2022-09-28T13:26:39.580Z,18.01
2022-09-28T13:28:47.114Z,18.03
2022-09-28T13:30:52.543Z,18.04
2022-09-28T13:33:00.373Z,18.04
2022-09-28T13:35:03.628Z,18.02
2022-09-28T13:37:21.747Z,18.04
2022-09-28T13:39:48.715Z,18.07
2022-09-28T13:41:51.758Z,18.06
2022-09-28T13:44:17.070Z,18.04
2022-09-28T13:46:29.786Z,18.03
2022-09-28T13:48:46.070Z,18.06
2022-09-28T13:51:10.638Z,18.07
2022-09-28T13:53:26.222Z,18.09
2022-09-28T13:55:38.332Z,18.08
2022-09-28T13:57:47.646Z,18.07
2022-09-28T14:00:04.967Z,18.04
2022-09-28T14:02:22.657Z,18.02
2022-09-28T14:04:47.732Z,17.95
2022-09-28T14:06:55.620Z,17.88
2022-09-28T14:09:26.367Z,17.84
2022-09-28T14:11:57.009Z,17.81
2022-09-28T14:14:02.601Z,17.79
2022-09-28T14:16:26.780Z,17.82
2022-09-28T14:18:33.898Z,17.83
2022-09-28T14:20:38.414Z,17.84
2022-09-28T14:22:58.059Z,17.85
2022-09-28T14:25:09.084Z,17.86
2022-09-28T14:27:48.903Z,17.86
2022-09-28T14:30:08.257Z,17.86
2022-09-28T14:32:33.441Z,17.85
2022-09-28T14:34:39.352Z,17.85
2022-09-28T14:37:07.015Z,17.85
2022-09-28T14:39:39.548Z,17.87
2022-09-28T14:41:44.463Z,17.86
2022-09-28T14:44:10.801Z,17.85
2022-09-28T14:46:36.058Z,17.86
2022-09-28T14:48:49.078Z,17.87
2022-09-28T14:50:55.696Z,17.86
2022-09-28T14:53:05.630Z,17.86
2022-09-28T14:55:16.191Z,17.84
2022-09-28T14:57:21.910Z,17.87
2022-09-28T14:59:30.529Z,17.87
2022-09-28T15:01:35.392Z,17.86
2022-09-28T15:03:42.627Z,17.86
2022-09-28T15:05:49.061Z,17.85
2022-09-28T15:07:53.849Z,17.86
2022-09-28T15:09:58.274Z,17.85
2022-09-28T15:12:02.376Z,17.84
2022-09-28T15:14:10.511Z,17.82
2022-09-28T15:16:15.337Z,17.79
2022-09-28T15:18:45.223Z,17.74
2022-09-28T15:20:51.315Z,17.72
2022-09-28T15:22:57.710Z,17.67
2022-09-28T15:25:03.014Z,17.66
2022-09-28T15:27:16.182Z,17.64
2022-09-28T15:29:22.709Z,17.63
2022-09-28T15:31:27.620Z,17.61
2022-09-28T15:33:50.030Z,17.59
2022-09-28T15:36:01.348Z,17.58
2022-09-28T15:38:04.190Z,17.58
2022-09-28T15:40:14.201Z,17.57
2022-09-28T15:42:18.376Z,17.54
2022-09-28T15:44:30.075Z,17.51
2022-09-28T15:46:35.059Z,17.51
2022-09-28T15:48:48.088Z,17.53
2022-09-28T15:51:04.989Z,17.54
2022-09-28T15:53:07.939Z,17.54
2022-09-28T15:55:21.934Z,17.53
2022-09-28T15:57:33.926Z,17.54
2022-09-28T15:59:39.314Z,17.55
2022-09-28T16:01:43.453Z,17.56
2022-09-28T16:03:46.311Z,17.55
2022-09-28T16:05:51.675Z,17.55
2022-09-28T16:07:56.564Z,17.54
2022-09-28T16:10:02.729Z,17.55
2022-09-28T16:12:13.259Z,17.54
2022-09-28T16:14:20.330Z,17.52
2022-09-28T16:16:28.068Z,17.53
2022-09-28T16:18:33.787Z,17.54
2022-09-28T16:20:38.786Z,17.54
2022-09-28T16:22:46.877Z,17.55
2022-09-28T16:24:56.847Z,17.55
2022-09-28T16:27:02.487Z,17.56
2022-09-28T16:29:25.463Z,17.54
2022-09-28T16:31:33.981Z,17.56
2022-09-28T16:33:41.856Z,17.55
2022-09-28T16:35:51.835Z,17.55
2022-09-28T16:37:59.053Z,17.53
2022-09-28T16:40:03.227Z,17.53
2022-09-28T16:42:08.636Z,17.47
2022-09-28T16:44:17.919Z,17.39
2022-09-28T16:46:23.777Z,17.30
2022-09-28T16:48:28.229Z,17.23
2022-09-28T16:50:31.026Z,17.14
2022-09-28T16:52:51.649Z,17.06
2022-09-28T16:55:35.752Z,17.00
2022-09-28T16:57:37.975Z,16.96
2022-09-28T16:59:40.998Z,16.99
2022-09-28T17:01:43.946Z,16.98
2022-09-28T17:03:50.056Z,17.00
2022-09-28T17:05:55.021Z,16.97
2022-09-28T17:08:02.237Z,16.95
2022-09-28T17:10:16.376Z,16.89
2022-09-28T17:12:22.815Z,16.84
2022-09-28T17:14:27.019Z,16.79
2022-09-28T17:17:02.335Z,16.75
2022-09-28T17:18:55.761Z,16.74
2022-09-28T17:21:04.019Z,16.76
2022-09-28T17:23:06.815Z,16.81
2022-09-28T17:25:12.728Z,16.81
2022-09-28T17:27:20.937Z,16.81
2022-09-28T17:29:25.083Z,16.77
2022-09-28T17:31:30.301Z,16.76
2022-09-28T17:33:33.155Z,16.77
2022-09-28T17:35:39.751Z,16.77
2022-09-28T17:37:43.286Z,16.78
2022-09-28T17:39:45.967Z,16.80
2022-09-28T17:41:48.855Z,16.80
2022-09-28T17:43:51.617Z,16.77
2022-09-28T17:45:54.761Z,16.77
2022-09-28T17:48:00.585Z,16.78
2022-09-28T17:50:03.584Z,16.80
2022-09-28T17:52:06.638Z,16.83
2022-09-28T17:54:09.787Z,16.86
2022-09-28T17:56:13.205Z,16.88
2022-09-28T17:58:18.550Z,16.91
2022-09-28T18:00:21.601Z,16.91
2022-09-28T18:02:25.181Z,16.92
2022-09-28T18:04:50.644Z,16.92
2022-09-28T18:06:52.184Z,16.92
2022-09-28T18:08:55.399Z,16.95
2022-09-28T18:10:58.200Z,16.95
2022-09-28T18:13:01.132Z,16.92
2022-09-28T18:15:03.927Z,16.82
2022-09-28T18:17:06.792Z,16.81
2022-09-28T18:19:09.777Z,16.76
2022-09-28T18:21:14.447Z,16.71
2022-09-28T18:23:19.227Z,16.64
2022-09-28T18:25:22.078Z,16.65
2022-09-28T18:27:24.948Z,16.69
2022-09-28T18:29:32.253Z,16.70
2022-09-28T18:31:36.138Z,16.72
2022-09-28T18:33:51.540Z,16.61
2022-09-28T18:35:55.527Z,16.44
2022-09-28T18:37:59.866Z,16.44
2022-09-28T18:40:03.014Z,16.45
2022-09-28T18:42:06.565Z,16.47
2022-09-28T18:44:09.332Z,16.50
2022-09-28T18:46:12.872Z,16.50
2022-09-28T18:48:15.711Z,16.52
2022-09-28T18:50:18.713Z,16.38
2022-09-28T18:52:21.635Z,16.37
2022-09-28T18:54:27.112Z,16.35
2022-09-28T18:56:29.998Z,16.37
2022-09-28T18:58:35.544Z,16.41
2022-09-28T19:00:40.062Z,16.43
2022-09-28T19:02:43.231Z,16.46
2022-09-28T19:04:46.059Z,16.47
2022-09-28T19:06:52.196Z,16.46
2022-09-28T19:08:56.490Z,16.46
2022-09-28T19:11:08.935Z,16.33
2022-09-28T19:13:11.721Z,16.24
2022-09-28T19:15:16.134Z,16.24
2022-09-28T19:17:19.700Z,16.18
2022-09-28T19:19:22.472Z,16.20
2022-09-28T19:21:25.890Z,16.24
2022-09-28T19:23:28.643Z,16.23
2022-09-28T19:25:31.427Z,16.26
2022-09-28T19:27:35.883Z,16.24
2022-09-28T19:29:38.715Z,16.29
2022-09-28T19:31:43.247Z,16.31
2022-09-28T19:33:46.749Z,16.33
2022-09-28T19:35:56.775Z,16.36
2022-09-28T19:37:59.486Z,16.39
2022-09-28T19:40:03.868Z,16.39
2022-09-28T19:42:06.790Z,16.41
2022-09-28T19:44:13.342Z,16.40
2022-09-28T19:46:16.349Z,16.40
2022-09-28T19:48:21.852Z,16.42
2022-09-28T19:50:24.586Z,16.42
2022-09-28T19:52:27.547Z,16.43
2022-09-28T19:54:36.428Z,16.43
2022-09-28T19:56:41.325Z,16.45
2022-09-28T19:58:44.028Z,16.45
2022-09-28T20:00:48.310Z,16.44
2022-09-28T20:02:51.327Z,16.47
2022-09-28T20:04:54.528Z,16.47
2022-09-28T20:06:57.403Z,16.48
2022-09-28T20:09:00.217Z,16.49
2022-09-28T20:11:02.887Z,16.47
2022-09-28T20:13:05.702Z,16.49
2022-09-28T20:15:10.634Z,16.49
2022-09-28T20:17:14.845Z,16.49
2022-09-28T20:19:19.451Z,16.48
2022-09-28T20:21:26.767Z,16.49
2022-09-28T20:23:29.805Z,16.50
2022-09-28T20:25:32.998Z,16.49
2022-09-28T20:27:35.838Z,16.50
2022-09-28T20:29:38.674Z,16.52
2022-09-28T20:31:42.649Z,16.52
2022-09-28T20:33:47.645Z,16.54
2022-09-28T20:35:50.355Z,16.54
2022-09-28T20:37:54.659Z,16.55
2022-09-28T20:39:57.935Z,16.53
2022-09-28T20:42:01.013Z,16.52
2022-09-28T20:44:06.746Z,16.53
2022-09-28T20:46:12.556Z,16.54
2022-09-28T20:48:15.349Z,16.51
2022-09-28T20:50:19.921Z,16.51
2022-09-28T20:52:23.027Z,16.54
2022-09-28T20:54:26.138Z,16.54
2022-09-28T20:56:31.020Z,16.56
